sensor_id;sensor_type;location;lat;lon;timestamp;temperature;humidity
45008;DHT22;30743;52.008;5.644;2023-04-06T00:01:25;10.30;90.70
45008;DHT22;30743;52.008;5.644;2023-04-06T00:03:51;10.30;90.50
45008;DHT22;30743;52.008;5.644;2023-04-06T00:06:16;10.30;90.50
45008;DHT22;30743;52.008;5.644;2023-04-06T00:08:42;10.30;90.40
45008;DHT22;30743;52.008;5.644;2023-04-06T00:11:08;10.30;90.40
45008;DHT22;30743;52.008;5.644;2023-04-06T00:13:34;10.30;90.60
45008;DHT22;30743;52.008;5.644;2023-04-06T00:16:00;10.30;90.60
45008;DHT22;30743;52.008;5.644;2023-04-06T00:18:25;10.30;90.70
45008;DHT22;30743;52.008;5.644;2023-04-06T00:20:51;10.30;90.60
45008;DHT22;30743;52.008;5.644;2023-04-06T00:23:17;10.30;90.70
45008;DHT22;30743;52.008;5.644;2023-04-06T00:25:43;10.30;90.80
45008;DHT22;30743;52.008;5.644;2023-04-06T00:28:08;10.30;90.80
45008;DHT22;30743;52.008;5.644;2023-04-06T00:30:34;10.20;90.90
45008;DHT22;30743;52.008;5.644;2023-04-06T00:32:59;10.20;90.90
45008;DHT22;30743;52.008;5.644;2023-04-06T00:35:25;10.20;90.80
45008;DHT22;30743;52.008;5.644;2023-04-06T00:37:51;10.20;90.90
45008;DHT22;30743;52.008;5.644;2023-04-06T00:40:17;10.20;90.90
45008;DHT22;30743;52.008;5.644;2023-04-06T00:42:43;10.20;90.80
45008;DHT22;30743;52.008;5.644;2023-04-06T00:45:09;10.20;90.90
45008;DHT22;30743;52.008;5.644;2023-04-06T00:47:35;10.10;90.60
45008;DHT22;30743;52.008;5.644;2023-04-06T00:50:01;10.00;90.60
45008;DHT22;30743;52.008;5.644;2023-04-06T00:52:26;10.00;90.90
45008;DHT22;30743;52.008;5.644;2023-04-06T00:54:52;9.90;90.90
45008;DHT22;30743;52.008;5.644;2023-04-06T00:57:18;10.00;90.90
45008;DHT22;30743;52.008;5.644;2023-04-06T00:59:45;9.90;90.90
45008;DHT22;30743;52.008;5.644;2023-04-06T01:02:10;10.00;90.90
45008;DHT22;30743;52.008;5.644;2023-04-06T01:04:36;10.00;91.00
45008;DHT22;30743;52.008;5.644;2023-04-06T01:07:01;10.00;91.10
45008;DHT22;30743;52.008;5.644;2023-04-06T01:09:28;10.00;91.30
45008;DHT22;30743;52.008;5.644;2023-04-06T01:11:55;10.10;91.30
45008;DHT22;30743;52.008;5.644;2023-04-06T01:14:21;10.10;91.10
45008;DHT22;30743;52.008;5.644;2023-04-06T01:16:47;10.10;91.20
45008;DHT22;30743;52.008;5.644;2023-04-06T01:19:13;10.00;91.10
45008;DHT22;30743;52.008;5.644;2023-04-06T01:21:40;9.90;91.20
45008;DHT22;30743;52.008;5.644;2023-04-06T01:24:06;10.00;91.10
45008;DHT22;30743;52.008;5.644;2023-04-06T01:26:33;10.00;91.00
45008;DHT22;30743;52.008;5.644;2023-04-06T01:28:59;9.90;91.10
45008;DHT22;30743;52.008;5.644;2023-04-06T01:31:25;10.00;91.10
45008;DHT22;30743;52.008;5.644;2023-04-06T01:33:51;9.90;91.40
45008;DHT22;30743;52.008;5.644;2023-04-06T01:36:17;9.90;91.50
45008;DHT22;30743;52.008;5.644;2023-04-06T01:38:42;9.90;91.30
45008;DHT22;30743;52.008;5.644;2023-04-06T01:41:08;9.90;91.50
45008;DHT22;30743;52.008;5.644;2023-04-06T01:43:34;9.90;91.50
45008;DHT22;30743;52.008;5.644;2023-04-06T01:46:00;9.90;91.40
45008;DHT22;30743;52.008;5.644;2023-04-06T01:48:26;10.00;91.30
45008;DHT22;30743;52.008;5.644;2023-04-06T01:50:52;9.90;91.50
45008;DHT22;30743;52.008;5.644;2023-04-06T01:53:18;9.90;91.70
45008;DHT22;30743;52.008;5.644;2023-04-06T01:55:43;9.90;91.80
45008;DHT22;30743;52.008;5.644;2023-04-06T01:58:09;10.00;91.80
45008;DHT22;30743;52.008;5.644;2023-04-06T02:00:34;10.00;91.50
45008;DHT22;30743;52.008;5.644;2023-04-06T02:03:00;10.00;91.40
45008;DHT22;30743;52.008;5.644;2023-04-06T02:05:26;10.00;91.10
45008;DHT22;30743;52.008;5.644;2023-04-06T02:07:52;10.00;90.70
45008;DHT22;30743;52.008;5.644;2023-04-06T02:10:17;9.90;90.70
45008;DHT22;30743;52.008;5.644;2023-04-06T02:12:43;9.90;90.80
45008;DHT22;30743;52.008;5.644;2023-04-06T02:15:09;9.90;90.80
45008;DHT22;30743;52.008;5.644;2023-04-06T02:17:35;10.10;90.70
45008;DHT22;30743;52.008;5.644;2023-04-06T02:20:00;10.10;90.40
45008;DHT22;30743;52.008;5.644;2023-04-06T02:22:26;10.10;90.40
45008;DHT22;30743;52.008;5.644;2023-04-06T02:24:51;10.20;90.30
45008;DHT22;30743;52.008;5.644;2023-04-06T02:27:17;10.20;90.30
45008;DHT22;30743;52.008;5.644;2023-04-06T02:29:42;10.10;90.00
45008;DHT22;30743;52.008;5.644;2023-04-06T02:32:08;10.10;90.20
45008;DHT22;30743;52.008;5.644;2023-04-06T02:34:33;10.20;90.10
45008;DHT22;30743;52.008;5.644;2023-04-06T02:36:59;10.00;90.10
45008;DHT22;30743;52.008;5.644;2023-04-06T02:39:24;9.90;90.30
45008;DHT22;30743;52.008;5.644;2023-04-06T02:41:50;9.90;90.20
45008;DHT22;30743;52.008;5.644;2023-04-06T02:44:15;9.80;90.30
45008;DHT22;30743;52.008;5.644;2023-04-06T02:46:41;9.70;91.10
45008;DHT22;30743;52.008;5.644;2023-04-06T02:49:06;9.80;90.60
45008;DHT22;30743;52.008;5.644;2023-04-06T02:51:32;9.80;90.60
45008;DHT22;30743;52.008;5.644;2023-04-06T02:53:58;10.00;90.60
45008;DHT22;30743;52.008;5.644;2023-04-06T02:56:24;10.40;90.60
45008;DHT22;30743;52.008;5.644;2023-04-06T02:58:50;10.10;90.40
45008;DHT22;30743;52.008;5.644;2023-04-06T03:01:15;10.10;90.20
45008;DHT22;30743;52.008;5.644;2023-04-06T03:03:41;10.20;90.30
45008;DHT22;30743;52.008;5.644;2023-04-06T03:06:07;10.10;90.40
45008;DHT22;30743;52.008;5.644;2023-04-06T03:08:32;10.00;90.40
45008;DHT22;30743;52.008;5.644;2023-04-06T03:10:58;9.90;90.50
45008;DHT22;30743;52.008;5.644;2023-04-06T03:13:23;9.80;90.50
45008;DHT22;30743;52.008;5.644;2023-04-06T03:15:49;9.80;90.60
45008;DHT22;30743;52.008;5.644;2023-04-06T03:18:14;9.80;90.90
45008;DHT22;30743;52.008;5.644;2023-04-06T03:20:40;9.70;91.00
45008;DHT22;30743;52.008;5.644;2023-04-06T03:23:06;9.90;91.20
45008;DHT22;30743;52.008;5.644;2023-04-06T03:25:31;10.00;90.80
45008;DHT22;30743;52.008;5.644;2023-04-06T03:27:57;10.00;91.00
45008;DHT22;30743;52.008;5.644;2023-04-06T03:30:22;10.10;90.70
45008;DHT22;30743;52.008;5.644;2023-04-06T03:32:48;10.10;90.70
45008;DHT22;30743;52.008;5.644;2023-04-06T03:35:13;10.20;90.70
45008;DHT22;30743;52.008;5.644;2023-04-06T03:37:39;10.30;90.70
45008;DHT22;30743;52.008;5.644;2023-04-06T03:40:06;10.20;90.70
45008;DHT22;30743;52.008;5.644;2023-04-06T03:42:32;10.20;90.80
45008;DHT22;30743;52.008;5.644;2023-04-06T03:44:58;10.30;90.50
45008;DHT22;30743;52.008;5.644;2023-04-06T03:47:24;10.20;90.60
45008;DHT22;30743;52.008;5.644;2023-04-06T03:49:49;10.20;91.30
45008;DHT22;30743;52.008;5.644;2023-04-06T03:52:15;10.10;91.20
45008;DHT22;30743;52.008;5.644;2023-04-06T03:54:40;10.10;90.80
45008;DHT22;30743;52.008;5.644;2023-04-06T03:57:06;10.00;90.70
45008;DHT22;30743;52.008;5.644;2023-04-06T03:59:31;9.90;91.10
45008;DHT22;30743;52.008;5.644;2023-04-06T04:01:57;9.80;91.60
45008;DHT22;30743;52.008;5.644;2023-04-06T04:04:22;9.70;91.50
45008;DHT22;30743;52.008;5.644;2023-04-06T04:06:48;9.70;91.50
45008;DHT22;30743;52.008;5.644;2023-04-06T04:09:13;9.60;91.60
45008;DHT22;30743;52.008;5.644;2023-04-06T04:11:39;9.60;91.90
45008;DHT22;30743;52.008;5.644;2023-04-06T04:14:04;9.50;91.80
45008;DHT22;30743;52.008;5.644;2023-04-06T04:16:30;9.40;92.20
45008;DHT22;30743;52.008;5.644;2023-04-06T04:18:55;9.40;92.20
45008;DHT22;30743;52.008;5.644;2023-04-06T04:21:23;9.50;91.90
45008;DHT22;30743;52.008;5.644;2023-04-06T04:23:48;9.40;92.20
45008;DHT22;30743;52.008;5.644;2023-04-06T04:26:14;9.50;92.30
45008;DHT22;30743;52.008;5.644;2023-04-06T04:28:39;9.30;92.50
45008;DHT22;30743;52.008;5.644;2023-04-06T04:31:05;9.20;92.30
45008;DHT22;30743;52.008;5.644;2023-04-06T04:33:31;9.30;92.70
45008;DHT22;30743;52.008;5.644;2023-04-06T04:35:56;9.10;93.10
45008;DHT22;30743;52.008;5.644;2023-04-06T04:38:21;9.20;93.30
45008;DHT22;30743;52.008;5.644;2023-04-06T04:40:47;9.10;93.20
45008;DHT22;30743;52.008;5.644;2023-04-06T04:43:13;9.10;92.90
45008;DHT22;30743;52.008;5.644;2023-04-06T04:45:38;9.20;93.30
45008;DHT22;30743;52.008;5.644;2023-04-06T04:48:04;9.10;93.20
45008;DHT22;30743;52.008;5.644;2023-04-06T04:50:30;9.10;93.30
45008;DHT22;30743;52.008;5.644;2023-04-06T04:52:56;9.00;93.40
45008;DHT22;30743;52.008;5.644;2023-04-06T04:55:21;9.00;93.50
45008;DHT22;30743;52.008;5.644;2023-04-06T04:57:47;9.10;93.40
45008;DHT22;30743;52.008;5.644;2023-04-06T05:00:13;9.20;93.30
45008;DHT22;30743;52.008;5.644;2023-04-06T05:02:38;9.10;93.50
45008;DHT22;30743;52.008;5.644;2023-04-06T05:05:05;9.10;93.50
45008;DHT22;30743;52.008;5.644;2023-04-06T05:07:30;9.20;93.20
45008;DHT22;30743;52.008;5.644;2023-04-06T05:09:56;9.00;93.10
45008;DHT22;30743;52.008;5.644;2023-04-06T05:12:22;9.10;93.20
45008;DHT22;30743;52.008;5.644;2023-04-06T05:14:47;9.30;93.10
45008;DHT22;30743;52.008;5.644;2023-04-06T05:17:13;9.40;93.10
45008;DHT22;30743;52.008;5.644;2023-04-06T05:19:38;9.50;93.10
45008;DHT22;30743;52.008;5.644;2023-04-06T05:22:04;9.50;93.10
45008;DHT22;30743;52.008;5.644;2023-04-06T05:24:30;9.60;92.70
45008;DHT22;30743;52.008;5.644;2023-04-06T05:26:55;9.90;92.70
45008;DHT22;30743;52.008;5.644;2023-04-06T05:29:21;10.00;92.70
45008;DHT22;30743;52.008;5.644;2023-04-06T05:31:50;10.10;92.30
45008;DHT22;30743;52.008;5.644;2023-04-06T05:34:16;10.30;92.40
45008;DHT22;30743;52.008;5.644;2023-04-06T05:36:42;10.40;92.20
45008;DHT22;30743;52.008;5.644;2023-04-06T05:39:07;10.60;92.50
45008;DHT22;30743;52.008;5.644;2023-04-06T05:41:33;10.60;92.60
45008;DHT22;30743;52.008;5.644;2023-04-06T05:43:58;10.50;92.50
45008;DHT22;30743;52.008;5.644;2023-04-06T05:46:24;10.60;92.50
45008;DHT22;30743;52.008;5.644;2023-04-06T05:48:50;10.60;92.50
45008;DHT22;30743;52.008;5.644;2023-04-06T05:51:15;10.70;92.10
45008;DHT22;30743;52.008;5.644;2023-04-06T05:53:41;10.60;92.70
45008;DHT22;30743;52.008;5.644;2023-04-06T05:56:07;10.60;92.80
45008;DHT22;30743;52.008;5.644;2023-04-06T05:58:32;10.60;93.00
45008;DHT22;30743;52.008;5.644;2023-04-06T06:01:01;10.70;93.20
45008;DHT22;30743;52.008;5.644;2023-04-06T06:03:28;10.80;92.80
45008;DHT22;30743;52.008;5.644;2023-04-06T06:05:54;10.60;92.50
45008;DHT22;30743;52.008;5.644;2023-04-06T06:08:24;10.60;92.60
45008;DHT22;30743;52.008;5.644;2023-04-06T06:10:50;10.40;93.10
45008;DHT22;30743;52.008;5.644;2023-04-06T06:13:16;10.30;93.10
45008;DHT22;30743;52.008;5.644;2023-04-06T06:15:41;10.30;93.40
45008;DHT22;30743;52.008;5.644;2023-04-06T06:18:07;9.90;93.70
45008;DHT22;30743;52.008;5.644;2023-04-06T06:20:32;10.10;94.10
45008;DHT22;30743;52.008;5.644;2023-04-06T06:22:58;10.20;93.70
45008;DHT22;30743;52.008;5.644;2023-04-06T06:25:23;10.20;94.10
45008;DHT22;30743;52.008;5.644;2023-04-06T06:27:49;10.30;93.80
45008;DHT22;30743;52.008;5.644;2023-04-06T06:30:15;10.20;94.30
45008;DHT22;30743;52.008;5.644;2023-04-06T06:32:40;10.20;93.90
45008;DHT22;30743;52.008;5.644;2023-04-06T06:35:06;10.30;94.20
45008;DHT22;30743;52.008;5.644;2023-04-06T06:37:32;10.50;93.70
45008;DHT22;30743;52.008;5.644;2023-04-06T06:39:57;10.60;93.50
45008;DHT22;30743;52.008;5.644;2023-04-06T06:42:23;10.60;93.30
45008;DHT22;30743;52.008;5.644;2023-04-06T06:44:48;10.70;93.30
45008;DHT22;30743;52.008;5.644;2023-04-06T06:47:14;10.90;93.10
45008;DHT22;30743;52.008;5.644;2023-04-06T06:49:40;11.00;93.00
45008;DHT22;30743;52.008;5.644;2023-04-06T06:52:05;11.00;93.00
45008;DHT22;30743;52.008;5.644;2023-04-06T06:54:31;10.90;92.60
45008;DHT22;30743;52.008;5.644;2023-04-06T06:56:56;11.00;93.10
45008;DHT22;30743;52.008;5.644;2023-04-06T06:59:22;11.20;93.30
45008;DHT22;30743;52.008;5.644;2023-04-06T07:01:49;11.40;93.20
45008;DHT22;30743;52.008;5.644;2023-04-06T07:04:15;11.40;93.00
45008;DHT22;30743;52.008;5.644;2023-04-06T07:06:40;11.50;93.10
45008;DHT22;30743;52.008;5.644;2023-04-06T07:09:06;11.40;92.90
45008;DHT22;30743;52.008;5.644;2023-04-06T07:11:31;11.50;93.10
45008;DHT22;30743;52.008;5.644;2023-04-06T07:13:57;11.60;93.30
45008;DHT22;30743;52.008;5.644;2023-04-06T07:16:22;11.60;92.70
45008;DHT22;30743;52.008;5.644;2023-04-06T07:18:48;11.60;93.10
45008;DHT22;30743;52.008;5.644;2023-04-06T07:21:13;11.70;93.20
45008;DHT22;30743;52.008;5.644;2023-04-06T07:23:39;11.80;93.10
45008;DHT22;30743;52.008;5.644;2023-04-06T07:26:05;11.90;93.10
45008;DHT22;30743;52.008;5.644;2023-04-06T07:28:30;12.10;93.40
45008;DHT22;30743;52.008;5.644;2023-04-06T07:30:56;11.70;93.00
45008;DHT22;30743;52.008;5.644;2023-04-06T07:33:22;11.80;93.50
45008;DHT22;30743;52.008;5.644;2023-04-06T07:35:47;11.70;93.10
45008;DHT22;30743;52.008;5.644;2023-04-06T07:38:13;11.50;93.60
45008;DHT22;30743;52.008;5.644;2023-04-06T07:40:38;11.30;94.10
45008;DHT22;30743;52.008;5.644;2023-04-06T07:43:04;11.10;94.10
45008;DHT22;30743;52.008;5.644;2023-04-06T07:45:29;11.00;94.40
45008;DHT22;30743;52.008;5.644;2023-04-06T07:47:55;10.80;94.20
45008;DHT22;30743;52.008;5.644;2023-04-06T07:50:21;10.90;95.00
45008;DHT22;30743;52.008;5.644;2023-04-06T07:52:46;10.70;95.00
45008;DHT22;30743;52.008;5.644;2023-04-06T07:55:12;10.70;94.80
45008;DHT22;30743;52.008;5.644;2023-04-06T07:57:37;10.80;94.80
45008;DHT22;30743;52.008;5.644;2023-04-06T08:00:04;11.00;94.90
45008;DHT22;30743;52.008;5.644;2023-04-06T08:02:33;11.10;94.80
45008;DHT22;30743;52.008;5.644;2023-04-06T08:04:58;11.00;94.30
45008;DHT22;30743;52.008;5.644;2023-04-06T08:07:24;10.90;94.40
45008;DHT22;30743;52.008;5.644;2023-04-06T08:09:49;10.80;94.60
45008;DHT22;30743;52.008;5.644;2023-04-06T08:12:15;10.70;94.50
45008;DHT22;30743;52.008;5.644;2023-04-06T08:14:40;10.60;95.20
45008;DHT22;30743;52.008;5.644;2023-04-06T08:17:06;10.80;95.10
45008;DHT22;30743;52.008;5.644;2023-04-06T08:19:32;10.80;94.90
45008;DHT22;30743;52.008;5.644;2023-04-06T08:21:57;10.80;95.00
45008;DHT22;30743;52.008;5.644;2023-04-06T08:24:23;11.10;95.50
45008;DHT22;30743;52.008;5.644;2023-04-06T08:26:48;11.40;95.00
45008;DHT22;30743;52.008;5.644;2023-04-06T08:29:14;11.60;95.00
45008;DHT22;30743;52.008;5.644;2023-04-06T08:31:40;11.70;94.90
45008;DHT22;30743;52.008;5.644;2023-04-06T08:34:05;11.60;94.20
45008;DHT22;30743;52.008;5.644;2023-04-06T08:36:31;11.80;94.10
45008;DHT22;30743;52.008;5.644;2023-04-06T08:38:58;11.80;95.20
45008;DHT22;30743;52.008;5.644;2023-04-06T08:41:24;11.80;94.70
45008;DHT22;30743;52.008;5.644;2023-04-06T08:43:59;11.70;94.80
45008;DHT22;30743;52.008;5.644;2023-04-06T08:46:26;11.40;94.20
45008;DHT22;30743;52.008;5.644;2023-04-06T08:48:55;11.50;94.70
45008;DHT22;30743;52.008;5.644;2023-04-06T08:51:23;11.50;95.10
45008;DHT22;30743;52.008;5.644;2023-04-06T08:53:49;11.40;94.60
45008;DHT22;30743;52.008;5.644;2023-04-06T08:56:15;11.30;95.10
45008;DHT22;30743;52.008;5.644;2023-04-06T08:58:41;11.30;95.40
45008;DHT22;30743;52.008;5.644;2023-04-06T09:01:09;11.50;95.60
45008;DHT22;30743;52.008;5.644;2023-04-06T09:03:40;11.60;95.50
45008;DHT22;30743;52.008;5.644;2023-04-06T09:06:07;12.00;94.80
45008;DHT22;30743;52.008;5.644;2023-04-06T09:08:34;11.90;94.70
45008;DHT22;30743;52.008;5.644;2023-04-06T09:11:03;11.80;95.50
45008;DHT22;30743;52.008;5.644;2023-04-06T09:13:29;12.00;95.40
45008;DHT22;30743;52.008;5.644;2023-04-06T09:16:02;12.00;95.40
45008;DHT22;30743;52.008;5.644;2023-04-06T09:18:33;11.90;95.00
45008;DHT22;30743;52.008;5.644;2023-04-06T09:21:03;12.20;95.60
45008;DHT22;30743;52.008;5.644;2023-04-06T09:23:30;12.40;95.80
45008;DHT22;30743;52.008;5.644;2023-04-06T09:26:15;12.40;95.20
45008;DHT22;30743;52.008;5.644;2023-04-06T09:28:53;12.50;95.60
45008;DHT22;30743;52.008;5.644;2023-04-06T09:31:27;12.50;94.70
45008;DHT22;30743;52.008;5.644;2023-04-06T09:33:53;12.60;94.20
45008;DHT22;30743;52.008;5.644;2023-04-06T09:36:20;12.60;94.80
45008;DHT22;30743;52.008;5.644;2023-04-06T09:38:53;12.50;94.60
45008;DHT22;30743;52.008;5.644;2023-04-06T09:41:30;12.50;95.40
45008;DHT22;30743;52.008;5.644;2023-04-06T09:44:10;12.70;94.80
45008;DHT22;30743;52.008;5.644;2023-04-06T09:46:39;12.60;94.80
45008;DHT22;30743;52.008;5.644;2023-04-06T09:49:06;12.50;94.90
45008;DHT22;30743;52.008;5.644;2023-04-06T09:51:40;12.40;95.30
45008;DHT22;30743;52.008;5.644;2023-04-06T09:54:06;12.50;95.30
45008;DHT22;30743;52.008;5.644;2023-04-06T09:56:44;12.60;94.90
45008;DHT22;30743;52.008;5.644;2023-04-06T09:59:13;12.80;95.50
45008;DHT22;30743;52.008;5.644;2023-04-06T10:01:40;12.70;95.40
45008;DHT22;30743;52.008;5.644;2023-04-06T10:06:44;12.70;94.80
45008;DHT22;30743;52.008;5.644;2023-04-06T10:09:13;12.80;95.30
45008;DHT22;30743;52.008;5.644;2023-04-06T10:11:40;12.80;95.00
45008;DHT22;30743;52.008;5.644;2023-04-06T10:14:06;12.90;94.90
45008;DHT22;30743;52.008;5.644;2023-04-06T10:16:32;12.70;94.50
45008;DHT22;30743;52.008;5.644;2023-04-06T10:19:04;12.70;95.40
45008;DHT22;30743;52.008;5.644;2023-04-06T10:21:32;12.90;95.80
45008;DHT22;30743;52.008;5.644;2023-04-06T10:24:01;12.90;95.40
45008;DHT22;30743;52.008;5.644;2023-04-06T10:26:27;13.30;96.30
45008;DHT22;30743;52.008;5.644;2023-04-06T10:28:54;13.20;95.50
45008;DHT22;30743;52.008;5.644;2023-04-06T10:31:27;13.00;95.30
45008;DHT22;30743;52.008;5.644;2023-04-06T10:33:59;13.30;95.70
45008;DHT22;30743;52.008;5.644;2023-04-06T10:36:35;13.30;95.40
45008;DHT22;30743;52.008;5.644;2023-04-06T10:39:05;13.30;95.80
45008;DHT22;30743;52.008;5.644;2023-04-06T10:41:35;13.50;96.40
45008;DHT22;30743;52.008;5.644;2023-04-06T10:44:01;13.40;96.30
45008;DHT22;30743;52.008;5.644;2023-04-06T10:46:32;13.40;96.70
45008;DHT22;30743;52.008;5.644;2023-04-06T10:49:08;13.30;97.10
45008;DHT22;30743;52.008;5.644;2023-04-06T10:51:37;13.20;98.00
45008;DHT22;30743;52.008;5.644;2023-04-06T10:54:03;13.30;98.70
45008;DHT22;30743;52.008;5.644;2023-04-06T10:56:31;13.20;98.10
45008;DHT22;30743;52.008;5.644;2023-04-06T10:58:59;13.00;98.70
45008;DHT22;30743;52.008;5.644;2023-04-06T11:01:25;13.00;99.90
45008;DHT22;30743;52.008;5.644;2023-04-06T11:03:54;13.10;99.90
45008;DHT22;30743;52.008;5.644;2023-04-06T11:06:24;13.00;99.90
45008;DHT22;30743;52.008;5.644;2023-04-06T11:08:51;12.80;99.90
45008;DHT22;30743;52.008;5.644;2023-04-06T11:11:19;12.80;99.90
45008;DHT22;30743;52.008;5.644;2023-04-06T11:16:28;12.60;99.90
45008;DHT22;30743;52.008;5.644;2023-04-06T11:24:19;11.90;99.90
45008;DHT22;30743;52.008;5.644;2023-04-06T11:26:56;11.70;99.90
45008;DHT22;30743;52.008;5.644;2023-04-06T11:29:24;11.60;99.90
45008;DHT22;30743;52.008;5.644;2023-04-06T11:31:52;11.70;99.90
45008;DHT22;30743;52.008;5.644;2023-04-06T11:34:20;11.70;99.90
45008;DHT22;30743;52.008;5.644;2023-04-06T11:36:47;11.70;99.90
45008;DHT22;30743;52.008;5.644;2023-04-06T11:39:17;11.90;99.90
45008;DHT22;30743;52.008;5.644;2023-04-06T11:41:48;12.10;99.90
45008;DHT22;30743;52.008;5.644;2023-04-06T11:44:13;12.10;99.90
45008;DHT22;30743;52.008;5.644;2023-04-06T11:46:39;11.80;99.90
45008;DHT22;30743;52.008;5.644;2023-04-06T11:49:05;11.80;99.90
45008;DHT22;30743;52.008;5.644;2023-04-06T11:51:35;11.70;99.90
45008;DHT22;30743;52.008;5.644;2023-04-06T11:54:01;11.70;99.90
45008;DHT22;30743;52.008;5.644;2023-04-06T11:56:30;11.40;99.90
45008;DHT22;30743;52.008;5.644;2023-04-06T11:58:57;11.30;99.90
45008;DHT22;30743;52.008;5.644;2023-04-06T12:01:25;11.30;99.90
45008;DHT22;30743;52.008;5.644;2023-04-06T12:03:51;11.50;99.90
45008;DHT22;30743;52.008;5.644;2023-04-06T12:06:17;11.90;99.90
45008;DHT22;30743;52.008;5.644;2023-04-06T12:08:43;12.00;99.90
45008;DHT22;30743;52.008;5.644;2023-04-06T12:11:10;11.70;99.90
45008;DHT22;30743;52.008;5.644;2023-04-06T12:13:35;11.50;99.90
45008;DHT22;30743;52.008;5.644;2023-04-06T12:16:01;11.60;99.90
45008;DHT22;30743;52.008;5.644;2023-04-06T12:18:26;11.40;99.90
45008;DHT22;30743;52.008;5.644;2023-04-06T12:20:52;11.60;99.90
45008;DHT22;30743;52.008;5.644;2023-04-06T12:23:19;11.30;99.90
45008;DHT22;30743;52.008;5.644;2023-04-06T12:25:44;11.20;99.90
45008;DHT22;30743;52.008;5.644;2023-04-06T12:28:10;11.30;99.90
45008;DHT22;30743;52.008;5.644;2023-04-06T12:30:36;11.30;99.90
45008;DHT22;30743;52.008;5.644;2023-04-06T12:33:02;11.20;99.90
45008;DHT22;30743;52.008;5.644;2023-04-06T12:35:27;11.40;99.90
45008;DHT22;30743;52.008;5.644;2023-04-06T12:37:53;11.20;99.90
45008;DHT22;30743;52.008;5.644;2023-04-06T12:40:19;11.00;99.90
45008;DHT22;30743;52.008;5.644;2023-04-06T12:42:45;11.10;99.90
45008;DHT22;30743;52.008;5.644;2023-04-06T12:45:11;11.10;99.90
45008;DHT22;30743;52.008;5.644;2023-04-06T12:47:37;11.00;99.90
45008;DHT22;30743;52.008;5.644;2023-04-06T12:50:06;10.90;99.90
45008;DHT22;30743;52.008;5.644;2023-04-06T12:52:31;10.70;99.90
45008;DHT22;30743;52.008;5.644;2023-04-06T12:55:00;10.60;99.90
45008;DHT22;30743;52.008;5.644;2023-04-06T12:57:26;10.70;99.90
45008;DHT22;30743;52.008;5.644;2023-04-06T12:59:52;11.00;99.90
45008;DHT22;30743;52.008;5.644;2023-04-06T13:02:18;10.90;99.90
45008;DHT22;30743;52.008;5.644;2023-04-06T13:04:45;10.90;99.90
45008;DHT22;30743;52.008;5.644;2023-04-06T13:07:11;10.90;99.90
45008;DHT22;30743;52.008;5.644;2023-04-06T13:09:37;10.90;99.90
45008;DHT22;30743;52.008;5.644;2023-04-06T13:12:02;10.90;99.90
45008;DHT22;30743;52.008;5.644;2023-04-06T13:14:28;11.10;99.90
45008;DHT22;30743;52.008;5.644;2023-04-06T13:16:53;11.10;99.90
45008;DHT22;30743;52.008;5.644;2023-04-06T13:19:19;11.10;99.90
45008;DHT22;30743;52.008;5.644;2023-04-06T13:21:45;11.10;99.90
45008;DHT22;30743;52.008;5.644;2023-04-06T13:24:10;10.90;99.90
45008;DHT22;30743;52.008;5.644;2023-04-06T13:26:36;10.90;99.90
45008;DHT22;30743;52.008;5.644;2023-04-06T13:29:01;11.10;99.90
45008;DHT22;30743;52.008;5.644;2023-04-06T13:31:28;10.90;99.90
45008;DHT22;30743;52.008;5.644;2023-04-06T13:33:53;10.90;99.90
45008;DHT22;30743;52.008;5.644;2023-04-06T13:36:19;10.90;99.90
45008;DHT22;30743;52.008;5.644;2023-04-06T13:38:45;10.70;99.90
45008;DHT22;30743;52.008;5.644;2023-04-06T13:41:20;10.70;99.90
45008;DHT22;30743;52.008;5.644;2023-04-06T13:43:49;10.80;99.90
45008;DHT22;30743;52.008;5.644;2023-04-06T13:46:15;10.80;99.90
45008;DHT22;30743;52.008;5.644;2023-04-06T13:48:41;10.80;99.90
45008;DHT22;30743;52.008;5.644;2023-04-06T13:51:11;10.70;99.90
45008;DHT22;30743;52.008;5.644;2023-04-06T13:53:37;10.70;99.90
45008;DHT22;30743;52.008;5.644;2023-04-06T13:56:02;10.80;99.90
45008;DHT22;30743;52.008;5.644;2023-04-06T13:58:28;10.90;99.90
45008;DHT22;30743;52.008;5.644;2023-04-06T14:00:53;10.90;99.90
45008;DHT22;30743;52.008;5.644;2023-04-06T14:03:21;10.80;99.90
45008;DHT22;30743;52.008;5.644;2023-04-06T14:05:46;10.80;99.90
45008;DHT22;30743;52.008;5.644;2023-04-06T14:08:12;10.80;99.90
45008;DHT22;30743;52.008;5.644;2023-04-06T14:10:41;10.80;99.90
45008;DHT22;30743;52.008;5.644;2023-04-06T14:13:07;10.70;99.90
45008;DHT22;30743;52.008;5.644;2023-04-06T14:15:33;10.80;99.90
45008;DHT22;30743;52.008;5.644;2023-04-06T14:17:59;10.80;99.90
45008;DHT22;30743;52.008;5.644;2023-04-06T14:20:25;10.90;99.90
45008;DHT22;30743;52.008;5.644;2023-04-06T14:22:51;11.70;99.90
45008;DHT22;30743;52.008;5.644;2023-04-06T14:25:18;11.10;99.90
45008;DHT22;30743;52.008;5.644;2023-04-06T14:27:43;11.10;99.90
45008;DHT22;30743;52.008;5.644;2023-04-06T14:30:10;11.00;99.90
45008;DHT22;30743;52.008;5.644;2023-04-06T14:32:36;10.90;99.90
45008;DHT22;30743;52.008;5.644;2023-04-06T14:35:03;10.60;99.90
45008;DHT22;30743;52.008;5.644;2023-04-06T14:37:29;10.60;99.90
45008;DHT22;30743;52.008;5.644;2023-04-06T14:39:54;10.60;99.90
45008;DHT22;30743;52.008;5.644;2023-04-06T14:42:20;10.80;99.90
45008;DHT22;30743;52.008;5.644;2023-04-06T14:44:45;10.70;99.90
45008;DHT22;30743;52.008;5.644;2023-04-06T14:47:11;10.60;99.90
45008;DHT22;30743;52.008;5.644;2023-04-06T14:49:39;10.70;99.90
45008;DHT22;30743;52.008;5.644;2023-04-06T14:52:05;10.70;99.90
45008;DHT22;30743;52.008;5.644;2023-04-06T14:54:31;10.70;99.90
45008;DHT22;30743;52.008;5.644;2023-04-06T14:56:56;10.70;99.90
45008;DHT22;30743;52.008;5.644;2023-04-06T14:59:23;10.70;99.90
45008;DHT22;30743;52.008;5.644;2023-04-06T15:01:48;10.70;99.90
45008;DHT22;30743;52.008;5.644;2023-04-06T15:04:14;10.80;99.90
45008;DHT22;30743;52.008;5.644;2023-04-06T15:06:39;10.80;99.90
45008;DHT22;30743;52.008;5.644;2023-04-06T15:09:05;10.80;99.90
45008;DHT22;30743;52.008;5.644;2023-04-06T15:11:31;10.80;99.90
45008;DHT22;30743;52.008;5.644;2023-04-06T15:13:56;10.60;99.90
45008;DHT22;30743;52.008;5.644;2023-04-06T15:16:22;10.60;99.90
45008;DHT22;30743;52.008;5.644;2023-04-06T15:18:47;10.60;99.90
45008;DHT22;30743;52.008;5.644;2023-04-06T15:21:13;10.60;99.90
45008;DHT22;30743;52.008;5.644;2023-04-06T15:23:38;10.70;99.90
45008;DHT22;30743;52.008;5.644;2023-04-06T15:26:04;10.60;99.90
45008;DHT22;30743;52.008;5.644;2023-04-06T15:28:29;10.70;99.90
45008;DHT22;30743;52.008;5.644;2023-04-06T15:30:55;10.90;99.90
45008;DHT22;30743;52.008;5.644;2023-04-06T15:33:23;10.80;99.90
45008;DHT22;30743;52.008;5.644;2023-04-06T15:35:49;10.80;99.90
45008;DHT22;30743;52.008;5.644;2023-04-06T15:38:14;10.60;99.90